createdAt,value
2022-09-22T00:00:15.524Z,3.60
2022-09-22T00:01:10.768Z,2.70
2022-09-22T00:02:06.046Z,3.30
2022-09-22T00:03:00.992Z,3.90
2022-09-22T00:03:56.212Z,3.50
2022-09-22T00:04:51.277Z,4.00
2022-09-22T00:05:46.465Z,3.70
2022-09-22T00:06:41.686Z,3.60
2022-09-22T00:07:36.774Z,2.60
2022-09-22T00:08:31.969Z,3.60
2022-09-22T00:09:27.159Z,4.10
2022-09-22T00:10:22.248Z,5.20
2022-09-22T00:11:17.464Z,2.70
2022-09-22T00:12:12.649Z,2.60
2022-09-22T00:13:07.740Z,4.00
2022-09-22T00:14:02.910Z,4.70
2022-09-22T00:14:57.999Z,2.90
2022-09-22T00:15:53.214Z,2.40
2022-09-22T00:16:48.330Z,2.90
2022-09-22T00:17:43.410Z,3.90
2022-09-22T00:18:38.617Z,2.20
2022-09-22T00:19:33.794Z,3.30
2022-09-22T00:20:28.883Z,2.30
2022-09-22T00:21:24.083Z,3.20
2022-09-22T00:22:19.403Z,4.10
2022-09-22T00:23:14.466Z,6.40
2022-09-22T00:24:09.649Z,4.10
2022-09-22T00:25:04.736Z,3.70
2022-09-22T00:25:59.922Z,3.30
2022-09-22T00:26:55.281Z,2.50
2022-09-22T00:27:50.232Z,3.70
2022-09-22T00:28:45.395Z,4.10
2022-09-22T00:29:40.580Z,3.30
2022-09-22T00:30:35.791Z,6.50
2022-09-22T00:31:31.016Z,2.90
2022-09-22T00:32:26.320Z,3.10
2022-09-22T00:33:21.395Z,2.90
2022-09-22T00:34:16.573Z,4.50
2022-09-22T00:35:11.661Z,3.70
2022-09-22T00:36:06.859Z,3.90
2022-09-22T00:37:02.068Z,2.60
2022-09-22T00:37:57.156Z,3.60
2022-09-22T00:38:52.347Z,2.30
2022-09-22T00:39:47.517Z,3.70
2022-09-22T00:40:42.675Z,3.30
2022-09-22T00:41:37.728Z,3.70
2022-09-22T00:42:33.055Z,4.00
2022-09-22T00:43:28.124Z,3.60
2022-09-22T00:44:23.335Z,4.60
2022-09-22T00:45:18.416Z,3.20
2022-09-22T00:46:13.681Z,3.30
2022-09-22T00:47:08.716Z,2.90
2022-09-22T00:48:03.803Z,5.90
2022-09-22T00:48:59.054Z,3.20
2022-09-22T00:49:54.106Z,6.10
2022-09-22T00:50:49.306Z,5.00
2022-09-22T00:51:44.493Z,3.10
2022-09-22T00:52:39.821Z,5.10
2022-09-22T00:53:34.899Z,2.90
2022-09-22T00:54:30.111Z,5.30
2022-09-22T00:55:25.191Z,3.70
2022-09-22T00:56:20.391Z,5.30
2022-09-22T00:57:15.589Z,3.70
2022-09-22T00:58:10.796Z,4.10
2022-09-22T00:59:06.001Z,7.00
2022-09-22T01:00:01.239Z,3.80
2022-09-22T01:00:56.336Z,3.50
2022-09-22T01:01:51.439Z,6.10
2022-09-22T01:02:46.624Z,4.40
2022-09-22T01:03:41.729Z,4.50
2022-09-22T01:04:36.789Z,3.10
2022-09-22T01:05:31.879Z,3.90
2022-09-22T01:06:27.087Z,3.30
2022-09-22T01:07:22.273Z,4.10
2022-09-22T01:08:17.385Z,3.60
2022-09-22T01:09:12.565Z,4.60
2022-09-22T01:10:07.772Z,3.60
2022-09-22T01:11:02.845Z,3.80
2022-09-22T01:11:58.031Z,3.20
2022-09-22T01:12:53.354Z,6.90
2022-09-22T01:13:48.458Z,3.10
2022-09-22T01:14:43.647Z,3.70
2022-09-22T01:15:38.772Z,3.60
2022-09-22T01:16:33.862Z,3.40
2022-09-22T01:17:29.039Z,3.10
2022-09-22T01:18:24.120Z,5.30
2022-09-22T01:19:19.352Z,2.80
2022-09-22T01:20:14.390Z,3.30
2022-09-22T01:21:09.626Z,5.30
2022-09-22T01:22:04.809Z,3.90
2022-09-22T01:23:00.140Z,3.80
2022-09-22T01:23:55.206Z,4.30
2022-09-22T01:24:50.421Z,6.10
2022-09-22T01:25:45.488Z,4.60
2022-09-22T01:26:40.708Z,4.00
2022-09-22T01:27:35.890Z,3.90
2022-09-22T01:28:31.092Z,4.80
2022-09-22T01:29:26.286Z,4.70
2022-09-22T01:30:21.467Z,4.20
2022-09-22T01:31:16.712Z,3.50
2022-09-22T01:32:11.785Z,3.40
2022-09-22T01:33:07.094Z,4.20
2022-09-22T01:34:02.184Z,3.30
2022-09-22T01:34:57.367Z,4.10
2022-09-22T01:35:52.474Z,4.90
2022-09-22T01:36:47.663Z,6.40
2022-09-22T01:37:42.870Z,4.40
2022-09-22T01:38:38.073Z,4.10
2022-09-22T01:39:33.280Z,6.60
2022-09-22T01:40:28.530Z,3.90
2022-09-22T01:41:23.651Z,5.10
2022-09-22T01:42:18.706Z,3.70
2022-09-22T01:43:14.150Z,4.00
2022-09-22T01:44:09.230Z,5.70
2022-09-22T01:45:04.288Z,5.00
2022-09-22T01:45:59.545Z,7.30
2022-09-22T01:46:54.604Z,7.00
2022-09-22T01:47:49.790Z,4.80
2022-09-22T01:48:45.010Z,5.30
2022-09-22T01:49:40.199Z,5.50
2022-09-22T01:50:35.399Z,4.20
2022-09-22T01:51:30.477Z,3.90
2022-09-22T01:52:25.677Z,5.60
2022-09-22T01:53:21.012Z,4.90
2022-09-22T01:54:16.090Z,3.70
2022-09-22T01:55:11.298Z,4.80
2022-09-22T01:56:06.397Z,3.70
2022-09-22T01:57:01.578Z,3.90
2022-09-22T01:57:56.764Z,6.40
2022-09-22T01:58:51.851Z,4.20
2022-09-22T01:59:47.035Z,3.60
2022-09-22T02:00:42.251Z,5.10
2022-09-22T02:01:37.448Z,5.90
2022-09-22T02:02:32.568Z,5.10
2022-09-22T02:03:27.690Z,5.90
2022-09-22T02:04:22.782Z,5.10
2022-09-22T02:05:17.972Z,4.00
2022-09-22T02:06:13.200Z,3.80
2022-09-22T02:07:08.261Z,4.80
2022-09-22T02:08:03.459Z,5.70
2022-09-22T02:08:58.785Z,4.20
2022-09-22T02:09:53.762Z,5.70
2022-09-22T02:10:48.963Z,4.60
2022-09-22T02:11:44.075Z,5.90
2022-09-22T02:12:39.264Z,6.20
2022-09-22T02:13:34.587Z,5.50
2022-09-22T02:14:29.665Z,5.50
2022-09-22T02:15:24.847Z,5.60
2022-09-22T02:16:20.115Z,5.10
2022-09-22T02:17:15.167Z,7.40
2022-09-22T02:18:10.351Z,5.10
2022-09-22T02:19:12.356Z,6.50
2022-09-22T02:20:01.545Z,5.30
2022-09-22T02:20:55.700Z,8.40
2022-09-22T02:21:50.893Z,4.00
2022-09-22T02:22:46.085Z,4.80
2022-09-22T02:23:41.185Z,4.30
2022-09-22T02:24:36.372Z,5.20
2022-09-22T02:25:31.700Z,6.20
2022-09-22T02:26:26.846Z,10.90
2022-09-22T02:27:21.978Z,6.60
2022-09-22T02:28:17.033Z,5.20
2022-09-22T02:29:12.234Z,6.60
2022-09-22T02:30:07.425Z,7.80
2022-09-22T02:31:19.465Z,4.40
2022-09-22T02:31:58.713Z,5.10
2022-09-22T02:32:52.835Z,6.40
2022-09-22T02:33:48.018Z,4.90
2022-09-22T02:34:43.210Z,6.00
2022-09-22T02:35:38.317Z,3.70
2022-09-22T02:36:33.497Z,5.80
2022-09-22T02:37:28.818Z,6.70
2022-09-22T02:38:23.909Z,5.10
2022-09-22T02:39:19.128Z,5.80
2022-09-22T02:40:14.244Z,6.20
2022-09-22T02:41:09.306Z,5.70
2022-09-22T02:42:04.494Z,5.40
2022-09-22T02:42:59.704Z,4.50
2022-09-22T02:43:54.907Z,6.10
2022-09-22T02:44:50.105Z,5.50
2022-09-22T02:45:45.192Z,5.10
2022-09-22T02:46:40.462Z,4.90
2022-09-22T02:47:35.643Z,4.00
2022-09-22T02:48:30.748Z,4.70
2022-09-22T02:49:25.925Z,6.80
2022-09-22T02:50:21.009Z,3.80
2022-09-22T02:51:16.201Z,4.50
2022-09-22T02:52:11.428Z,4.50
2022-09-22T02:53:06.514Z,6.50
2022-09-22T02:54:01.719Z,4.80
2022-09-22T02:54:56.778Z,4.90
2022-09-22T02:55:51.873Z,4.60
2022-09-22T02:56:47.063Z,4.10
2022-09-22T02:57:42.406Z,4.10
2022-09-22T02:58:37.485Z,7.20
2022-09-22T02:59:32.707Z,5.40
2022-09-22T03:00:27.786Z,7.00
2022-09-22T03:01:23.002Z,5.50
2022-09-22T03:02:18.176Z,4.20
2022-09-22T03:03:13.265Z,5.70
2022-09-22T03:04:08.465Z,5.20
2022-09-22T03:05:03.835Z,7.10
2022-09-22T03:05:58.854Z,5.40
2022-09-22T03:06:54.058Z,4.60
2022-09-22T03:07:49.374Z,5.70
2022-09-22T03:08:44.454Z,5.60
2022-09-22T03:09:39.665Z,4.20
2022-09-22T03:10:34.768Z,4.90
2022-09-22T03:11:29.953Z,6.20
2022-09-22T03:12:25.143Z,4.50
2022-09-22T03:13:20.253Z,3.50
2022-09-22T03:14:15.449Z,4.50
2022-09-22T03:15:10.525Z,5.00
2022-09-22T03:16:05.760Z,5.40
2022-09-22T03:17:00.840Z,3.80
2022-09-22T03:17:56.152Z,4.10
2022-09-22T03:18:51.234Z,5.80
2022-09-22T03:19:46.454Z,3.90
2022-09-22T03:20:41.565Z,6.70
2022-09-22T03:21:36.749Z,4.00
2022-09-22T03:22:31.964Z,4.70
2022-09-22T03:23:27.186Z,5.80
2022-09-22T03:24:22.382Z,4.30
2022-09-22T03:25:17.585Z,7.40
2022-09-22T03:26:12.858Z,10.30
2022-09-22T03:27:08.087Z,4.20
2022-09-22T03:28:03.419Z,4.70
2022-09-22T03:28:58.533Z,7.90
2022-09-22T03:29:53.732Z,4.30
2022-09-22T03:30:48.858Z,4.70
2022-09-22T03:31:43.932Z,4.90
2022-09-22T03:32:39.009Z,4.50
2022-09-22T03:33:34.219Z,5.20
2022-09-22T03:34:29.412Z,5.50
2022-09-22T03:35:24.615Z,5.60
2022-09-22T03:36:19.754Z,4.50
2022-09-22T03:37:14.824Z,5.10
2022-09-22T03:38:10.172Z,6.00
2022-09-22T03:39:05.344Z,5.00
2022-09-22T03:40:00.353Z,4.10
2022-09-22T03:40:55.435Z,6.60
2022-09-22T03:41:50.649Z,5.80
2022-09-22T03:42:45.718Z,4.80
2022-09-22T03:43:40.927Z,4.00
2022-09-22T03:44:36.116Z,6.50
2022-09-22T03:45:31.318Z,6.20
2022-09-22T03:46:26.485Z,4.50
2022-09-22T03:47:21.579Z,5.30
2022-09-22T03:48:19.116Z,6.10
2022-09-22T03:49:14.203Z,6.10
2022-09-22T03:50:09.735Z,4.70
2022-09-22T03:51:05.424Z,5.30
2022-09-22T03:52:00.643Z,5.60
2022-09-22T03:52:55.981Z,5.60
2022-09-22T03:53:52.043Z,7.00
2022-09-22T03:54:47.275Z,5.60
2022-09-22T03:55:43.095Z,4.60
2022-09-22T03:56:38.305Z,5.90
2022-09-22T03:57:33.545Z,5.20
2022-09-22T03:58:29.232Z,5.20
2022-09-22T03:59:24.465Z,5.80
2022-09-22T04:00:20.280Z,3.80
2022-09-22T04:01:15.596Z,5.50
2022-09-22T04:02:10.885Z,4.70
2022-09-22T04:03:06.558Z,5.10
2022-09-22T04:04:01.777Z,5.80
2022-09-22T04:04:56.997Z,5.70
2022-09-22T04:05:53.210Z,5.40
2022-09-22T04:06:48.348Z,6.50
2022-09-22T04:07:44.128Z,5.10
2022-09-22T04:08:39.322Z,5.10
2022-09-22T04:09:34.451Z,4.80
2022-09-22T04:10:30.225Z,7.20
2022-09-22T04:11:25.505Z,5.00
2022-09-22T04:12:21.297Z,6.70
2022-09-22T04:13:16.504Z,6.40
2022-09-22T04:14:11.758Z,4.40
2022-09-22T04:15:07.548Z,6.90
2022-09-22T04:16:02.853Z,4.60
2022-09-22T04:16:57.829Z,6.40
2022-09-22T04:17:54.370Z,6.30
2022-09-22T04:18:49.591Z,5.90
2022-09-22T04:19:45.372Z,6.20
2022-09-22T04:20:41.268Z,5.70
2022-09-22T04:21:35.760Z,5.60
2022-09-22T04:22:32.122Z,7.30
2022-09-22T04:23:27.375Z,5.90
2022-09-22T04:24:23.278Z,4.00
2022-09-22T04:25:18.348Z,5.30
2022-09-22T04:26:13.755Z,5.70
2022-09-22T04:27:19.432Z,4.80
2022-09-22T04:28:05.895Z,5.40
2022-09-22T04:28:59.898Z,4.90
2022-09-22T04:29:54.897Z,7.10
2022-09-22T04:30:50.060Z,5.10
2022-09-22T04:31:45.086Z,5.30
2022-09-22T04:32:40.175Z,4.70
2022-09-22T04:33:35.301Z,6.00
2022-09-22T04:34:30.295Z,8.50
2022-09-22T04:35:25.310Z,6.30
2022-09-22T04:36:25.839Z,7.10
2022-09-22T04:37:20.929Z,5.90
2022-09-22T04:38:16.311Z,5.50
2022-09-22T04:39:11.992Z,4.80
2022-09-22T04:40:07.271Z,6.90
2022-09-22T04:41:02.443Z,6.00
2022-09-22T04:41:58.593Z,5.80
2022-09-22T04:42:53.824Z,6.20
2022-09-22T04:43:49.684Z,6.60
2022-09-22T04:44:44.848Z,4.50
2022-09-22T04:45:40.043Z,3.90
2022-09-22T04:46:35.788Z,4.80
2022-09-22T04:47:30.931Z,6.50
2022-09-22T04:48:26.850Z,4.40
2022-09-22T04:49:22.107Z,5.40
2022-09-22T04:50:17.290Z,4.20
2022-09-22T04:51:12.443Z,5.60
2022-09-22T04:52:07.887Z,5.40
2022-09-22T04:53:02.987Z,6.90
2022-09-22T04:53:58.104Z,5.70
2022-09-22T04:54:53.187Z,6.50
2022-09-22T04:55:49.800Z,4.10
2022-09-22T04:56:44.919Z,4.10
2022-09-22T04:57:40.724Z,3.80
2022-09-22T04:58:36.005Z,8.50
2022-09-22T04:59:31.446Z,5.50
2022-09-22T05:00:26.622Z,5.00
2022-09-22T05:01:21.718Z,7.00
2022-09-22T05:02:16.648Z,4.40
2022-09-22T05:03:11.753Z,6.00
2022-09-22T05:04:06.806Z,5.00
2022-09-22T05:05:01.910Z,3.60
2022-09-22T05:05:57.019Z,5.80
2022-09-22T05:06:52.094Z,6.10
2022-09-22T05:07:47.101Z,5.60
2022-09-22T05:08:42.192Z,4.90
2022-09-22T05:09:37.219Z,6.10
2022-09-22T05:10:32.417Z,7.00
2022-09-22T05:11:27.401Z,5.10
2022-09-22T05:12:22.405Z,6.60
2022-09-22T05:13:17.397Z,4.90
2022-09-22T05:14:15.616Z,5.50
2022-09-22T05:15:10.649Z,6.20
2022-09-22T05:16:05.647Z,7.30
2022-09-22T05:17:00.952Z,5.60
2022-09-22T05:17:56.058Z,4.60
2022-09-22T05:18:51.189Z,5.20
2022-09-22T05:19:46.229Z,6.50
2022-09-22T05:20:41.206Z,5.40
2022-09-22T05:21:36.237Z,5.70
2022-09-22T05:22:31.254Z,5.50
2022-09-22T05:23:26.264Z,6.30
2022-09-22T05:24:21.302Z,8.10
2022-09-22T05:25:16.435Z,5.90
2022-09-22T05:26:11.643Z,7.20
2022-09-22T05:27:06.431Z,8.90
2022-09-22T05:28:01.536Z,7.10
2022-09-22T05:28:56.544Z,6.90
2022-09-22T05:29:51.566Z,8.20
2022-09-22T05:30:46.661Z,7.50
2022-09-22T05:31:41.689Z,7.40
2022-09-22T05:32:36.683Z,8.70
2022-09-22T05:33:31.986Z,7.20
2022-09-22T05:34:27.138Z,7.10
2022-09-22T05:35:22.454Z,6.20
2022-09-22T05:36:17.797Z,6.30
2022-09-22T05:37:13.105Z,9.40
2022-09-22T05:38:08.476Z,7.50
2022-09-22T05:39:03.798Z,7.80
2022-09-22T05:39:59.096Z,6.00
2022-09-22T05:40:54.412Z,7.10
2022-09-22T05:41:49.727Z,9.20
2022-09-22T05:42:45.068Z,8.10
2022-09-22T05:43:40.428Z,7.80
2022-09-22T05:44:35.733Z,7.10
2022-09-22T05:45:31.117Z,8.30
2022-09-22T05:46:26.492Z,8.50
2022-09-22T05:47:21.554Z,7.30
2022-09-22T05:48:16.602Z,6.50
2022-09-22T05:49:11.658Z,8.50
2022-09-22T05:50:06.730Z,8.40
2022-09-22T05:51:01.813Z,6.50
2022-09-22T05:51:56.880Z,6.70
2022-09-22T05:52:51.925Z,6.80
2022-09-22T05:53:47.037Z,9.30
2022-09-22T05:54:42.089Z,6.90
2022-09-22T05:55:37.709Z,8.80
2022-09-22T05:56:33.037Z,11.40
2022-09-22T05:57:28.404Z,6.60
2022-09-22T05:58:23.788Z,6.70
2022-09-22T05:59:19.092Z,7.70
2022-09-22T06:00:14.396Z,8.10
2022-09-22T06:01:09.795Z,7.40
2022-09-22T06:02:18.003Z,9.50
2022-09-22T06:03:01.656Z,8.40
2022-09-22T06:03:55.935Z,6.80
2022-09-22T06:04:51.243Z,6.40
2022-09-22T06:05:46.580Z,5.40
2022-09-22T06:06:41.893Z,5.80
2022-09-22T06:07:37.199Z,6.90
2022-09-22T06:08:32.556Z,8.50
2022-09-22T06:09:27.869Z,8.30
2022-09-22T06:10:23.227Z,8.20
2022-09-22T06:11:18.572Z,8.00
2022-09-22T06:12:13.660Z,9.70
2022-09-22T06:13:08.632Z,6.70
2022-09-22T06:14:03.729Z,8.20
2022-09-22T06:14:58.808Z,9.90
2022-09-22T06:15:53.920Z,9.40
2022-09-22T06:16:49.058Z,8.50
2022-09-22T06:17:44.206Z,10.20
2022-09-22T06:18:39.218Z,9.50
2022-09-22T06:19:34.322Z,9.60
2022-09-22T06:20:29.324Z,8.00
2022-09-22T06:21:25.767Z,6.60
2022-09-22T06:22:21.135Z,7.10
2022-09-22T06:23:16.520Z,8.00
2022-09-22T06:24:11.904Z,11.00
2022-09-22T06:25:07.403Z,6.80
2022-09-22T06:26:02.775Z,6.70
2022-09-22T06:26:58.135Z,5.80
2022-09-22T06:27:53.639Z,9.40
2022-09-22T06:28:48.875Z,9.10
2022-09-22T06:29:44.252Z,6.20
2022-09-22T06:30:39.628Z,8.70
2022-09-22T06:31:35.029Z,9.40
2022-09-22T06:32:30.382Z,7.60
2022-09-22T06:33:25.812Z,10.20
2022-09-22T06:34:21.201Z,7.20
2022-09-22T06:35:16.578Z,7.40
2022-09-22T06:36:11.981Z,8.30
2022-09-22T06:37:07.215Z,7.10
2022-09-22T06:38:02.769Z,7.50
2022-09-22T06:38:58.119Z,9.30
2022-09-22T06:39:53.530Z,10.10
2022-09-22T06:40:49.012Z,13.90
2022-09-22T06:41:44.353Z,8.00
2022-09-22T06:42:39.819Z,6.10
2022-09-22T06:43:35.042Z,6.00
2022-09-22T06:44:30.323Z,6.10
2022-09-22T06:45:25.719Z,8.10
2022-09-22T06:46:21.029Z,8.70
2022-09-22T06:47:16.348Z,7.30
2022-09-22T06:48:11.667Z,9.50
2022-09-22T06:49:06.955Z,8.60
2022-09-22T06:50:02.398Z,6.30
2022-09-22T06:50:57.426Z,7.40
2022-09-22T06:51:52.465Z,7.50
2022-09-22T06:52:47.573Z,9.70
2022-09-22T06:53:42.624Z,8.50
2022-09-22T06:54:37.653Z,9.60
2022-09-22T06:55:32.692Z,7.20
2022-09-22T06:56:27.724Z,8.20
2022-09-22T06:57:22.763Z,6.10
2022-09-22T06:58:18.012Z,7.10
2022-09-22T06:59:13.025Z,6.10
2022-09-22T07:00:08.071Z,9.10
2022-09-22T07:01:06.290Z,7.00
2022-09-22T07:01:59.237Z,9.10
2022-09-22T07:02:53.371Z,8.20
2022-09-22T07:03:48.252Z,8.80
2022-09-22T07:04:43.307Z,4.80
2022-09-22T07:05:38.579Z,7.70
2022-09-22T07:06:33.916Z,6.90
2022-09-22T07:07:29.319Z,5.90
2022-09-22T07:08:24.687Z,6.70
2022-09-22T07:09:20.177Z,7.70
2022-09-22T07:10:15.452Z,9.00
2022-09-22T07:11:10.806Z,8.70
2022-09-22T07:12:06.230Z,7.40
2022-09-22T07:13:01.624Z,8.10
2022-09-22T07:14:01.185Z,10.60
2022-09-22T07:14:56.592Z,4.00
2022-09-22T07:15:52.060Z,5.20
2022-09-22T07:16:47.366Z,4.70
2022-09-22T07:17:42.873Z,9.20
2022-09-22T07:18:38.123Z,4.20
2022-09-22T07:19:33.484Z,5.50
2022-09-22T07:20:28.482Z,6.20
2022-09-22T07:21:23.565Z,6.30
2022-09-22T07:22:18.582Z,6.10
2022-09-22T07:23:13.589Z,5.80
2022-09-22T07:24:08.598Z,5.70
2022-09-22T07:25:03.641Z,5.60
2022-09-22T07:25:58.687Z,5.10
2022-09-22T07:26:53.790Z,5.10
2022-09-22T07:27:48.806Z,4.10
2022-09-22T07:28:43.894Z,3.80
2022-09-22T07:29:39.011Z,4.30
2022-09-22T07:30:34.300Z,4.70
2022-09-22T07:31:29.232Z,4.50
2022-09-22T07:32:24.357Z,4.50
2022-09-22T07:33:19.880Z,3.40
2022-09-22T07:34:15.408Z,4.20
2022-09-22T07:35:10.806Z,3.60
2022-09-22T07:36:06.368Z,4.70
2022-09-22T07:37:01.631Z,6.10
2022-09-22T07:37:57.288Z,3.90
2022-09-22T07:38:52.679Z,4.10
2022-09-22T07:39:48.230Z,4.70
2022-09-22T07:40:43.763Z,3.40
2022-09-22T07:41:39.277Z,3.80
2022-09-22T07:42:34.705Z,3.60
2022-09-22T07:43:33.742Z,6.80
2022-09-22T07:44:29.129Z,4.40
2022-09-22T07:45:24.664Z,3.70
2022-09-22T07:46:20.167Z,4.60
2022-09-22T07:47:15.603Z,3.50
2022-09-22T07:48:11.008Z,3.70
2022-09-22T07:49:06.429Z,3.60
2022-09-22T07:50:01.950Z,3.50
2022-09-22T07:50:57.462Z,3.70
2022-09-22T07:51:53.007Z,3.20
2022-09-22T07:52:48.461Z,5.20
2022-09-22T07:53:43.871Z,3.50
2022-09-22T07:54:39.205Z,3.60
2022-09-22T07:55:34.616Z,5.40
2022-09-22T07:56:30.164Z,4.10
2022-09-22T07:57:25.268Z,4.40
2022-09-22T07:58:20.298Z,6.00
2022-09-22T07:59:15.346Z,3.40
2022-09-22T08:00:10.437Z,3.20
2022-09-22T08:01:05.624Z,4.80
2022-09-22T08:02:00.695Z,4.20
2022-09-22T08:02:55.683Z,3.30
2022-09-22T08:03:50.992Z,3.20
2022-09-22T08:04:45.849Z,2.90
2022-09-22T08:05:40.957Z,3.20
2022-09-22T08:06:37.706Z,3.00
2022-09-22T08:07:32.816Z,3.50
2022-09-22T08:08:27.853Z,3.00
2022-09-22T08:09:22.845Z,4.60
2022-09-22T08:10:18.910Z,3.70
2022-09-22T08:11:14.276Z,4.70
2022-09-22T08:12:09.695Z,3.50
2022-09-22T08:13:05.085Z,4.00
2022-09-22T08:14:00.787Z,3.70
2022-09-22T08:14:56.224Z,3.50
2022-09-22T08:15:51.655Z,4.10
2022-09-22T08:16:47.034Z,5.90
2022-09-22T08:17:42.551Z,3.70
2022-09-22T08:18:37.961Z,3.50
2022-09-22T08:19:33.651Z,3.30
2022-09-22T08:20:29.291Z,4.10
2022-09-22T08:21:24.710Z,4.70
2022-09-22T08:22:20.291Z,3.30
2022-09-22T08:23:15.396Z,3.80
2022-09-22T08:24:10.532Z,3.50
2022-09-22T08:25:05.538Z,3.30
2022-09-22T08:26:00.519Z,3.90
2022-09-22T08:26:55.603Z,3.30
2022-09-22T08:27:50.778Z,3.90
2022-09-22T08:28:45.616Z,3.60
2022-09-22T08:29:43.173Z,4.30
2022-09-22T08:30:38.428Z,3.60
2022-09-22T08:31:33.489Z,3.70
2022-09-22T08:32:28.537Z,3.70
2022-09-22T08:33:23.506Z,3.30
2022-09-22T08:34:18.617Z,3.30
2022-09-22T08:35:13.616Z,3.70
2022-09-22T08:36:08.736Z,3.40
2022-09-22T08:37:04.653Z,3.30
2022-09-22T08:38:00.081Z,3.40
2022-09-22T08:38:55.475Z,4.10
2022-09-22T08:39:50.878Z,3.10
2022-09-22T08:40:46.456Z,3.70
2022-09-22T08:41:41.740Z,4.00
2022-09-22T08:42:36.733Z,4.10
2022-09-22T08:43:31.855Z,3.80
2022-09-22T08:44:26.878Z,3.10
2022-09-22T08:45:26.751Z,3.20
2022-09-22T08:46:18.135Z,4.10
2022-09-22T08:47:12.119Z,3.90
2022-09-22T08:48:07.101Z,4.30
2022-09-22T08:49:02.497Z,6.80
2022-09-22T08:49:57.895Z,3.50
2022-09-22T08:50:53.403Z,3.40
2022-09-22T08:51:48.813Z,3.30
2022-09-22T08:52:44.366Z,3.50
2022-09-22T08:53:39.782Z,3.70
2022-09-22T08:54:35.201Z,3.40
2022-09-22T08:55:30.580Z,3.70
2022-09-22T08:56:26.111Z,3.90
2022-09-22T08:57:21.095Z,3.80
2022-09-22T08:58:16.100Z,3.10
2022-09-22T08:59:11.218Z,3.90
2022-09-22T09:00:06.162Z,6.60
2022-09-22T09:01:01.262Z,3.80
2022-09-22T09:01:56.296Z,3.60
2022-09-22T09:02:51.371Z,4.20
2022-09-22T09:03:46.359Z,3.10
2022-09-22T09:06:06.111Z,3.50
2022-09-22T09:07:01.539Z,3.30
2022-09-22T09:07:56.964Z,3.30
2022-09-22T09:08:52.365Z,7.90
2022-09-22T09:09:47.892Z,3.10
2022-09-22T09:10:43.292Z,3.60
2022-09-22T09:11:38.822Z,4.10
2022-09-22T09:12:34.194Z,3.50
2022-09-22T09:13:29.573Z,4.90
2022-09-22T09:14:25.127Z,3.60
2022-09-22T09:15:20.652Z,3.50
2022-09-22T09:16:16.254Z,4.40
2022-09-22T09:17:11.657Z,3.30
2022-09-22T09:18:07.332Z,3.00
2022-09-22T09:19:02.562Z,3.20
2022-09-22T09:19:57.979Z,4.20
2022-09-22T09:20:53.493Z,3.00
2022-09-22T09:21:49.258Z,3.90
2022-09-22T09:22:46.438Z,3.20
2022-09-22T09:25:32.342Z,3.50
2022-09-22T09:26:26.930Z,5.10
2022-09-22T09:27:22.565Z,3.30
2022-09-22T09:28:18.149Z,5.80
2022-09-22T09:29:13.536Z,3.60
2022-09-22T09:30:09.200Z,4.80
2022-09-22T09:31:04.553Z,3.50
2022-09-22T09:31:59.981Z,3.60
2022-09-22T09:32:55.529Z,3.50
2022-09-22T09:33:51.074Z,4.40
2022-09-22T09:34:46.704Z,4.70
2022-09-22T09:35:42.247Z,3.70
2022-09-22T09:36:37.490Z,6.30
2022-09-22T09:37:32.857Z,4.10
2022-09-22T09:38:28.279Z,3.30
2022-09-22T09:39:23.925Z,2.70
2022-09-22T09:40:19.487Z,2.50
2022-09-22T09:41:14.917Z,3.20
2022-09-22T09:42:10.405Z,2.80
2022-09-22T09:43:05.907Z,2.30
2022-09-22T09:44:01.572Z,2.40
2022-09-22T09:44:56.946Z,2.50
2022-09-22T09:45:52.461Z,2.30
2022-09-22T09:46:48.035Z,2.30
2022-09-22T09:47:43.341Z,2.40
2022-09-22T09:48:38.834Z,2.50
2022-09-22T09:49:34.656Z,2.60
2022-09-22T09:50:30.055Z,2.60
2022-09-22T09:51:25.428Z,5.00
2022-09-22T09:52:20.945Z,2.10
2022-09-22T09:53:16.445Z,3.10
2022-09-22T09:54:16.786Z,2.60
2022-09-22T09:55:09.283Z,2.30
2022-09-22T09:56:02.896Z,2.50
2022-09-22T09:56:58.425Z,4.80
2022-09-22T09:57:53.932Z,2.70
2022-09-22T09:58:49.450Z,2.50
2022-09-22T09:59:44.962Z,2.80
2022-09-22T10:00:40.505Z,3.00
2022-09-22T10:01:36.187Z,2.80
2022-09-22T10:02:31.733Z,2.60
2022-09-22T10:03:27.316Z,3.20
2022-09-22T10:04:22.689Z,3.00
2022-09-22T10:05:18.155Z,4.00
2022-09-22T10:06:13.816Z,4.90
2022-09-22T10:07:09.201Z,2.80
2022-09-22T10:08:04.621Z,2.60
2022-09-22T10:09:00.310Z,2.50
2022-09-22T10:09:55.878Z,2.40
2022-09-22T10:10:51.414Z,2.00
2022-09-22T10:11:46.928Z,2.90
2022-09-22T10:12:42.348Z,3.10
2022-09-22T10:13:37.799Z,2.30
2022-09-22T10:14:33.240Z,2.10
2022-09-22T10:15:28.829Z,3.00
2022-09-22T10:16:24.228Z,2.10
2022-09-22T10:17:19.626Z,2.10
2022-09-22T10:18:15.177Z,2.20
2022-09-22T10:19:10.531Z,2.60
2022-09-22T10:20:05.998Z,2.20
2022-09-22T10:21:01.468Z,2.30
2022-09-22T10:21:56.908Z,2.80
2022-09-22T10:22:52.378Z,2.50
2022-09-22T10:23:47.856Z,2.80
2022-09-22T10:24:43.417Z,2.10
2022-09-22T10:25:38.730Z,2.20
2022-09-22T10:26:34.327Z,2.60
2022-09-22T10:27:29.603Z,3.20
2022-09-22T10:28:25.054Z,2.40
2022-09-22T10:29:20.515Z,2.70
2022-09-22T10:30:15.835Z,5.40
2022-09-22T10:31:11.335Z,3.20
2022-09-22T10:32:06.661Z,3.20
2022-09-22T10:33:02.283Z,3.10
2022-09-22T10:33:57.494Z,1.80
2022-09-22T10:34:52.964Z,3.80
2022-09-22T10:35:48.395Z,2.50
2022-09-22T10:36:43.835Z,2.00
2022-09-22T10:37:39.287Z,2.00
2022-09-22T10:38:34.900Z,2.80
2022-09-22T10:39:30.093Z,2.10
2022-09-22T10:40:25.611Z,1.90
2022-09-22T10:41:21.014Z,3.50
2022-09-22T10:42:16.474Z,2.20
2022-09-22T10:43:12.036Z,2.00
2022-09-22T10:44:34.523Z,1.70
2022-09-22T10:45:03.872Z,3.20
2022-09-22T10:45:58.292Z,2.10
2022-09-22T10:46:53.717Z,2.00
2022-09-22T10:47:49.135Z,2.80
2022-09-22T10:48:44.623Z,2.40
2022-09-22T10:49:40.215Z,2.00
2022-09-22T10:50:35.543Z,2.30
2022-09-22T10:51:30.862Z,3.20
2022-09-22T10:52:26.302Z,2.10
2022-09-22T10:53:21.781Z,1.70
2022-09-22T10:54:17.196Z,1.40
2022-09-22T10:55:12.647Z,1.40
2022-09-22T10:56:08.118Z,1.20
2022-09-22T10:57:03.550Z,2.00
2022-09-22T10:57:58.986Z,2.80
2022-09-22T10:58:54.500Z,1.60
2022-09-22T10:59:50.146Z,1.70
2022-09-22T11:00:45.543Z,1.40
2022-09-22T11:01:40.925Z,1.70
2022-09-22T11:02:36.220Z,1.20
2022-09-22T11:03:31.570Z,1.60
2022-09-22T11:04:27.182Z,1.70
2022-09-22T11:05:22.567Z,2.30
2022-09-22T11:06:17.891Z,1.90
2022-09-22T11:07:13.420Z,1.70
2022-09-22T11:08:08.848Z,1.40
2022-09-22T11:09:04.154Z,1.50
2022-09-22T11:09:59.699Z,2.50
2022-09-22T11:10:55.020Z,1.60
2022-09-22T11:11:50.425Z,1.30
2022-09-22T11:12:45.995Z,2.00
2022-09-22T11:13:41.669Z,1.10
2022-09-22T11:14:36.831Z,1.40
2022-09-22T11:15:32.288Z,1.50
2022-09-22T11:16:27.738Z,1.30
2022-09-22T11:17:23.176Z,1.30
2022-09-22T11:18:18.738Z,2.20
2022-09-22T11:19:14.080Z,1.60
2022-09-22T11:20:09.456Z,2.00
2022-09-22T11:21:04.888Z,1.80
2022-09-22T11:22:00.345Z,2.30
2022-09-22T11:22:55.818Z,1.70
2022-09-22T11:23:51.242Z,1.40
2022-09-22T11:24:46.567Z,1.10
2022-09-22T11:25:42.027Z,1.30
2022-09-22T11:26:37.617Z,1.30
2022-09-22T11:27:33.109Z,1.20
2022-09-22T11:28:28.392Z,1.20
2022-09-22T11:29:23.891Z,2.10
2022-09-22T11:30:19.340Z,1.40
2022-09-22T11:31:14.817Z,1.50
2022-09-22T11:32:10.164Z,1.30
2022-09-22T11:33:05.718Z,2.60
2022-09-22T11:34:01.156Z,1.40
2022-09-22T11:34:56.478Z,2.40
2022-09-22T11:35:52.116Z,1.50
2022-09-22T11:36:51.485Z,3.30
2022-09-22T11:37:42.872Z,1.30
2022-09-22T11:38:38.299Z,1.60
2022-09-22T11:39:33.590Z,1.80
2022-09-22T11:40:29.072Z,3.00
2022-09-22T11:41:24.547Z,1.60
2022-09-22T11:42:19.973Z,2.00
2022-09-22T11:43:15.402Z,2.10
2022-09-22T11:44:11.254Z,1.70
2022-09-22T11:45:06.713Z,1.60
2022-09-22T11:46:02.045Z,3.10
2022-09-22T11:46:57.380Z,1.80
2022-09-22T11:47:52.952Z,1.60
2022-09-22T11:48:48.283Z,1.60
2022-09-22T11:49:43.635Z,2.00
2022-09-22T11:50:39.100Z,6.90
2022-09-22T11:51:34.562Z,2.20
2022-09-22T11:52:30.022Z,3.40
2022-09-22T11:53:25.480Z,7.60
2022-09-22T11:54:20.958Z,1.80
2022-09-22T11:55:16.407Z,2.00
2022-09-22T11:56:11.864Z,2.60
2022-09-22T11:57:07.453Z,2.00
2022-09-22T11:58:02.763Z,2.10
2022-09-22T11:58:58.214Z,1.70
2022-09-22T11:59:53.544Z,3.40
2022-09-22T12:00:49.114Z,3.10
2022-09-22T12:01:44.456Z,3.20
2022-09-22T12:02:40.010Z,2.30
2022-09-22T12:03:35.480Z,1.60
2022-09-22T12:04:30.744Z,3.20
2022-09-22T12:05:26.179Z,2.20
2022-09-22T12:06:21.650Z,1.70
2022-09-22T12:07:17.125Z,2.30
2022-09-22T12:08:12.623Z,2.30
2022-09-22T12:09:08.085Z,2.70
2022-09-22T12:10:03.585Z,1.30
2022-09-22T12:10:58.893Z,1.60
2022-09-22T12:11:54.358Z,1.20
2022-09-22T12:12:49.779Z,1.60
2022-09-22T12:13:45.221Z,3.00
2022-09-22T12:14:40.701Z,1.50
2022-09-22T12:15:36.237Z,2.70
2022-09-22T12:16:31.595Z,2.60
2022-09-22T12:17:27.049Z,3.70
2022-09-22T12:18:22.522Z,2.50
2022-09-22T12:19:17.978Z,2.20